Time;durP1;ratioP1;P1;durP2;ratioP2;P2;SDS_P1;SDS_P2;PMS_P1;PMS_P2;Temp;Humidity;BMP_temperature;BMP_pressure;BME280_temperature;BME280_humidity;BME280_pressure;Samples;Min_cycle;Max_cycle;Signal;HPM_P1;HPM_P2
2022/09/28 00:00:27;;;;;;;;;;;;;;;;;;1041955;28;19979;-76
2022/09/28 00:00:58;;;;;;;;;;;;;;;;;;1038618;28;19913;-76
2022/09/28 00:01:28;;;;;;;;;;;;;;;;;;1038219;28;19913;-76
2022/09/28 00:01:58;;;;;;;;;;;;;;;;;;1037948;28;19963;-76
2022/09/28 00:02:28;;;;;;;;;;;;;;;;;;1037978;28;19923;-76
2022/09/28 00:02:59;;;;;;;;;;;;;;;;;;1037375;28;19913;-76
2022/09/28 00:03:29;;;;;;;;;;;;;;;;;;1037828;28;19995;-76
2022/09/28 00:04:00;;;;;;;;;;;;;;;;;;1040031;28;20354;-76
2022/09/28 00:04:32;;;;;;;;;;;;;;;;;;1040393;28;19917;-76
2022/09/28 00:05:02;;;;;;;;;;;;;;;;;;1040227;28;19963;-76
2022/09/28 00:05:32;;;;;;;;;;;;;;;;;;1040165;28;20283;-76
2022/09/28 00:06:02;;;;;;;;;;;;;;;;;;1040263;28;19913;-76
2022/09/28 00:06:33;;;;;;;;;;;;;;;;;;1042124;28;19963;-76
2022/09/28 00:07:03;;;;;;;;;;;;;;;;;;1040550;28;19913;-76
2022/09/28 00:07:33;;;;;;;;;;;;;;;;;;1037665;28;19952;-76
2022/09/28 00:08:03;;;;;;;;;;;;;;;;;;1039241;28;19913;-76
2022/09/28 00:08:34;;;;;;;;;;;;;;;;;;1039886;28;19947;-76
2022/09/28 00:09:04;;;;;;;;;;;;;;;;;;1039983;28;19913;-76
2022/09/28 00:09:34;;;;;;;;;;;;;;;;;;1039791;28;19999;-76
2022/09/28 00:10:04;;;;;;;;;;;;;;;;;;1039978;28;19913;-76
2022/09/28 00:10:35;;;;;;;;;;;;;;;;;;1040350;28;19913;-76
2022/09/28 00:11:05;;;;;;;;;;;;;;;;;;1041582;28;20002;-76
2022/09/28 00:11:36;;;;;;;;;;;;;;;;;;1041849;28;19913;-76
2022/09/28 00:12:06;;;;;;;;;;;;;;;;;;1041991;28;19963;-76
2022/09/28 00:12:36;;;;;;;;;;;;;;;;;;1042098;28;19917;-76
2022/09/28 00:13:07;;;;;;;;;;;;;;;;;;1040259;28;20269;-76
2022/09/28 00:13:37;;;;;;;;;;;;;;;;;;1040241;28;19921;-76
2022/09/28 00:14:07;;;;;;;;;;;;;;;;;;1040269;28;20460;-76
2022/09/28 00:14:39;;;;;;;;;;;;;;;;;;1040408;28;19963;-76
2022/09/28 00:15:09;;;;;;;;;;;;;;;;;;1041931;28;19917;-76
2022/09/28 00:15:40;;;;;;;;;;;;;;;;;;1041902;28;19912;-76
2022/09/28 00:16:10;;;;;;;;;;;;;;;;;;1037284;28;20008;-76
2022/09/28 00:16:40;;;;;;;;;;;;;;;;;;1038082;28;19914;-76
2022/09/28 00:17:11;;;;;;;;;;;;;;;;;;1039739;28;19919;-76
2022/09/28 00:17:43;;;;;;;;;;;;;;;;;;1037861;28;20408;-76
2022/09/28 00:18:14;;;;;;;;;;;;;;;;;;1041883;28;20070;-76
2022/09/28 00:18:44;;;;;;;;;;;;;;;;;;1041648;28;19917;-76
2022/09/28 00:19:14;;;;;;;;;;;;;;;;;;1037504;28;19948;-76
2022/09/28 00:19:45;;;;;;;;;;;;;;;;;;1037700;28;20004;-76
2022/09/28 00:20:16;;;;;;;;;;;;;;;;;;1037963;28;20308;-75
2022/09/28 00:20:47;;;;;;;;;;;;;;;;;;1037911;28;19980;-76
2022/09/28 00:21:17;;;;;;;;;;;;;;;;;;1041775;28;19912;-76
2022/09/28 00:21:47;;;;;;;;;;;;;;;;;;1044190;28;19912;-76
2022/09/28 00:22:18;;;;;;;;;;;;;;;;;;1043895;28;19920;-76
2022/09/28 00:22:48;;;;;;;;;;;;;;;;;;1048272;28;19948;-76
2022/09/28 00:23:18;;;;;;;;;;;;;;;;;;1040010;28;20814;-76
2022/09/28 00:24:37;;;;;;;;;;;;;;;;;;1041857;28;20296;-76
2022/09/28 00:25:07;;;;;;;;;;;;;;;;;;1041870;28;19913;-76
2022/09/28 00:25:37;;;;;;;;;;;;;;;;;;1040421;28;19920;-76
2022/09/28 00:26:08;;;;;;;;;;;;;;;;;;1040092;28;19935;-76
2022/09/28 00:26:39;;;;;;;;;;;;;;;;;;1039900;28;19994;-76
2022/09/28 00:27:09;;;;;;;;;;;;;;;;;;1040062;28;20296;-76
2022/09/28 00:27:39;;;;;;;;;;;;;;;;;;1040141;28;19913;-76
2022/09/28 00:28:10;;;;;;;;;;;;;;;;;;1040128;28;19939;-76
2022/09/28 00:28:40;;;;;;;;;;;;;;;;;;1042756;28;20002;-76
2022/09/28 00:29:10;;;;;;;;;;;;;;;;;;1027857;28;19933;-76
2022/09/28 00:29:41;;;;;;;;;;;;;;;;;;1036596;28;20361;-76
2022/09/28 00:30:13;;;;;;;;;;;;;;;;;;1037880;28;19968;-76
2022/09/28 00:30:43;;;;;;;;;;;;;;;;;;1039933;28;19924;-76
2022/09/28 00:31:13;;;;;;;;;;;;;;;;;;1039811;28;19913;-76
2022/09/28 00:31:43;;;;;;;;;;;;;;;;;;1039924;28;19913;-76
2022/09/28 00:32:15;;;;;;;;;;;;;;;;;;1040052;28;19952;-76
2022/09/28 00:32:45;;;;;;;;;;;;;;;;;;1040334;28;19916;-76
2022/09/28 00:33:16;;;;;;;;;;;;;;;;;;1039982;28;19917;-76
2022/09/28 00:33:46;;;;;;;;;;;;;;;;;;1040255;28;20288;-76
2022/09/28 00:34:16;;;;;;;;;;;;;;;;;;1040177;28;20174;-76
2022/09/28 00:34:47;;;;;;;;;;;;;;;;;;1040045;28;20462;-76
2022/09/28 00:35:18;;;;;;;;;;;;;;;;;;1039937;28;20376;-76
2022/09/28 00:35:48;;;;;;;;;;;;;;;;;;1040237;28;19921;-76
2022/09/28 00:36:18;;;;;;;;;;;;;;;;;;1041901;28;20188;-76
2022/09/28 00:36:48;;;;;;;;;;;;;;;;;;1037898;28;19940;-76
2022/09/28 00:37:19;;;;;;;;;;;;;;;;;;1037384;28;19921;-76
2022/09/28 00:37:49;;;;;;;;;;;;;;;;;;1037968;28;19923;-76
2022/09/28 00:38:20;;;;;;;;;;;;;;;;;;1039814;28;19919;-76
2022/09/28 00:38:51;;;;;;;;;;;;;;;;;;1037933;28;19914;-76
2022/09/28 00:39:21;;;;;;;;;;;;;;;;;;1037650;28;19914;-76
2022/09/28 00:39:51;;;;;;;;;;;;;;;;;;1037698;28;19913;-76
2022/09/28 00:40:22;;;;;;;;;;;;;;;;;;1037957;28;19914;-76
2022/09/28 00:40:52;;;;;;;;;;;;;;;;;;1039914;28;19921;-76
2022/09/28 00:41:22;;;;;;;;;;;;;;;;;;1037517;28;19913;-76
2022/09/28 00:41:53;;;;;;;;;;;;;;;;;;1042092;28;21141;-76
2022/09/28 00:42:23;;;;;;;;;;;;;;;;;;1041705;28;19952;-76
2022/09/28 00:42:53;;;;;;;;;;;;;;;;;;1042000;28;19913;-76
2022/09/28 00:43:23;;;;;;;;;;;;;;;;;;1039999;28;20023;-76
2022/09/28 00:43:54;;;;;;;;;;;;;;;;;;1043090;28;19971;-76
2022/09/28 00:44:24;;;;;;;;;;;;;;;;;;1041419;28;20352;-76
2022/09/28 00:44:54;;;;;;;;;;;;;;;;;;1042530;28;19913;-76
2022/09/28 00:45:25;;;;;;;;;;;;;;;;;;1036844;28;19920;-76
2022/09/28 00:45:55;;;;;;;;;;;;;;;;;;1038340;28;20339;-76
2022/09/28 00:46:25;;;;;;;;;;;;;;;;;;1038915;28;19956;-76
2022/09/28 00:46:55;;;;;;;;;;;;;;;;;;1039906;28;20451;-76
2022/09/28 00:47:26;;;;;;;;;;;;;;;;;;1041871;28;19913;-76
2022/09/28 00:47:56;;;;;;;;;;;;;;;;;;1041867;28;19952;-76
2022/09/28 00:48:27;;;;;;;;;;;;;;;;;;1041782;28;19924;-76
2022/09/28 00:48:57;;;;;;;;;;;;;;;;;;1042008;28;19913;-76
2022/09/28 00:49:27;;;;;;;;;;;;;;;;;;1041627;28;20008;-76
2022/09/28 00:49:57;;;;;;;;;;;;;;;;;;1042085;28;19984;-76
2022/09/28 00:50:28;;;;;;;;;;;;;;;;;;1037121;28;19917;-76
2022/09/28 00:50:58;;;;;;;;;;;;;;;;;;1037516;28;19917;-76
2022/09/28 00:51:28;;;;;;;;;;;;;;;;;;1039559;28;19940;-76
2022/09/28 00:51:59;;;;;;;;;;;;;;;;;;1037727;28;19917;-76
2022/09/28 00:52:29;;;;;;;;;;;;;;;;;;1037195;28;20422;-76
2022/09/28 00:52:59;;;;;;;;;;;;;;;;;;1037788;28;19917;-76
2022/09/28 00:53:29;;;;;;;;;;;;;;;;;;1037354;28;19914;-76
2022/09/28 00:54:00;;;;;;;;;;;;;;;;;;1039283;28;19921;-75
2022/09/28 00:54:30;;;;;;;;;;;;;;;;;;1039893;28;19917;-75
2022/09/28 00:55:00;;;;;;;;;;;;;;;;;;1039877;28;20070;-75
2022/09/28 00:55:31;;;;;;;;;;;;;;;;;;1039881;28;19920;-76
2022/09/28 00:56:02;;;;;;;;;;;;;;;;;;1040041;28;19912;-76
2022/09/28 00:56:32;;;;;;;;;;;;;;;;;;1040157;28;19945;-76
2022/09/28 00:57:03;;;;;;;;;;;;;;;;;;1041792;28;19919;-76
2022/09/28 00:57:33;;;;;;;;;;;;;;;;;;1037373;28;19913;-76
2022/09/28 00:58:03;;;;;;;;;;;;;;;;;;1037622;28;19936;-76
2022/09/28 00:58:34;;;;;;;;;;;;;;;;;;1037870;28;20312;-76
2022/09/28 00:59:04;;;;;;;;;;;;;;;;;;1039817;28;19920;-76
2022/09/28 00:59:34;;;;;;;;;;;;;;;;;;1041008;28;20517;-76
2022/09/28 01:00:05;;;;;;;;;;;;;;;;;;1036584;28;19917;-76
2022/09/28 01:00:35;;;;;;;;;;;;;;;;;;1037595;28;19972;-76
2022/09/28 01:01:05;;;;;;;;;;;;;;;;;;1037765;28;19921;-76
2022/09/28 01:01:35;;;;;;;;;;;;;;;;;;1039546;28;20083;-76
2022/09/28 01:02:06;;;;;;;;;;;;;;;;;;1039689;28;20388;-76
2022/09/28 01:02:36;;;;;;;;;;;;;;;;;;1040144;28;20024;-76
2022/09/28 01:03:06;;;;;;;;;;;;;;;;;;1040161;28;19917;-76
2022/09/28 01:03:37;;;;;;;;;;;;;;;;;;1039886;28;19917;-76
2022/09/28 01:04:07;;;;;;;;;;;;;;;;;;1040023;28;19913;-76
2022/09/28 01:04:37;;;;;;;;;;;;;;;;;;1041825;28;19920;-76
2022/09/28 01:05:09;;;;;;;;;;;;;;;;;;1037514;28;19913;-76
2022/09/28 01:05:39;;;;;;;;;;;;;;;;;;1036229;28;19917;-75
2022/09/28 01:06:10;;;;;;;;;;;;;;;;;;1037229;28;20358;-76
2022/09/28 01:06:41;;;;;;;;;;;;;;;;;;1038807;28;19960;-75
2022/09/28 01:07:11;;;;;;;;;;;;;;;;;;1040032;28;20368;-76
2022/09/28 01:07:41;;;;;;;;;;;;;;;;;;1039734;28;19963;-76
2022/09/28 01:08:13;;;;;;;;;;;;;;;;;;1041651;28;20011;-76
2022/09/28 01:08:43;;;;;;;;;;;;;;;;;;1040640;28;19917;-76
2022/09/28 01:09:14;;;;;;;;;;;;;;;;;;1036682;28;20466;-76
2022/09/28 01:09:44;;;;;;;;;;;;;;;;;;1035735;28;19917;-75
2022/09/28 01:10:15;;;;;;;;;;;;;;;;;;1037539;28;19964;-76
2022/09/28 01:10:45;;;;;;;;;;;;;;;;;;1037599;28;20015;-76
2022/09/28 01:11:15;;;;;;;;;;;;;;;;;;1040680;28;19914;-76
2022/09/28 01:11:46;;;;;;;;;;;;;;;;;;1041659;28;19967;-75
2022/09/28 01:12:16;;;;;;;;;;;;;;;;;;1042064;28;19913;-76
2022/09/28 01:12:46;;;;;;;;;;;;;;;;;;1041228;28;20304;-76
2022/09/28 01:13:17;;;;;;;;;;;;;;;;;;1040095;28;20457;-76
2022/09/28 01:13:47;;;;;;;;;;;;;;;;;;1040258;28;19913;-76
2022/09/28 01:14:18;;;;;;;;;;;;;;;;;;1042342;28;20016;-76
2022/09/28 01:14:48;;;;;;;;;;;;;;;;;;1040698;28;19920;-76
2022/09/28 01:15:20;;;;;;;;;;;;;;;;;;1041379;28;19913;-76
2022/09/28 01:15:51;;;;;;;;;;;;;;;;;;1041804;28;19913;-76
2022/09/28 01:16:21;;;;;;;;;;;;;;;;;;1039937;28;19913;-76
2022/09/28 01:16:51;;;;;;;;;;;;;;;;;;1040147;28;20287;-76
2022/09/28 01:17:23;;;;;;;;;;;;;;;;;;1041180;28;20285;-76
2022/09/28 01:17:53;;;;;;;;;;;;;;;;;;1037442;28;19935;-76
2022/09/28 01:18:23;;;;;;;;;;;;;;;;;;1035622;28;19918;-76
2022/09/28 01:18:54;;;;;;;;;;;;;;;;;;1037037;28;19918;-76
2022/09/28 01:19:24;;;;;;;;;;;;;;;;;;1039401;28;19913;-76
2022/09/28 01:19:54;;;;;;;;;;;;;;;;;;1039203;28;19953;-76
2022/09/28 01:20:25;;;;;;;;;;;;;;;;;;1039490;28;19913;-76
2022/09/28 01:20:56;;;;;;;;;;;;;;;;;;1040019;28;20016;-77
2022/09/28 01:21:26;;;;;;;;;;;;;;;;;;1039853;28;19913;-76
2022/09/28 01:21:56;;;;;;;;;;;;;;;;;;1039806;28;19916;-77
2022/09/28 01:22:27;;;;;;;;;;;;;;;;;;1040376;28;19920;-76
2022/09/28 01:22:57;;;;;;;;;;;;;;;;;;1040013;28;19928;-76
2022/09/28 01:23:27;;;;;;;;;;;;;;;;;;1034688;28;20389;-76
2022/09/28 01:23:58;;;;;;;;;;;;;;;;;;1036573;28;19972;-77
2022/09/28 01:24:28;;;;;;;;;;;;;;;;;;1036187;28;20051;-77
2022/09/28 01:24:59;;;;;;;;;;;;;;;;;;1036339;28;19914;-77
2022/09/28 01:25:30;;;;;;;;;;;;;;;;;;1035737;28;19971;-77
2022/09/28 01:26:00;;;;;;;;;;;;;;;;;;1038989;28;19913;-77
2022/09/28 01:26:31;;;;;;;;;;;;;;;;;;1039367;28;19963;-77
2022/09/28 01:27:01;;;;;;;;;;;;;;;;;;1041204;28;19996;-77
2022/09/28 01:27:33;;;;;;;;;;;;;;;;;;1042483;28;20067;-77
2022/09/28 01:28:03;;;;;;;;;;;;;;;;;;1042301;28;19920;-77
2022/09/28 01:28:33;;;;;;;;;;;;;;;;;;1034251;28;19928;-77
2022/09/28 01:29:04;;;;;;;;;;;;;;;;;;1038385;28;20328;-78
2022/09/28 01:29:35;;;;;;;;;;;;;;;;;;1035544;28;19914;-79
2022/09/28 01:30:08;;;;;;;;;;;;;;;;;;1037200;28;20187;-78
2022/09/28 01:30:39;;;;;;;;;;;;;;;;;;1040625;28;19921;-80
2022/09/28 01:31:11;;;;;;;;;;;;;;;;;;1039104;28;19976;-80
2022/09/28 01:31:41;;;;;;;;;;;;;;;;;;1033902;28;19982;-78
2022/09/28 01:32:12;;;;;;;;;;;;;;;;;;1038649;28;21581;-78
2022/09/28 01:32:43;;;;;;;;;;;;;;;;;;1035661;28;19933;-77
2022/09/28 01:33:14;;;;;;;;;;;;;;;;;;1031763;28;19933;-77
2022/09/28 01:33:47;;;;;;;;;;;;;;;;;;1031765;28;19925;-79
2022/09/28 01:34:18;;;;;;;;;;;;;;;;;;1032997;28;19914;-78
2022/09/28 01:34:49;;;;;;;;;;;;;;;;;;1031847;28;20484;-78
2022/09/28 01:35:21;;;;;;;;;;;;;;;;;;1035380;28;19930;-78
2022/09/28 01:35:55;;;;;;;;;;;;;;;;;;1036048;28;19917;-77
2022/09/28 01:36:26;;;;;;;;;;;;;;;;;;1035402;28;19971;-79
2022/09/28 01:37:00;;;;;;;;;;;;;;;;;;1039573;28;19968;-78
2022/09/28 01:37:33;;;;;;;;;;;;;;;;;;1037236;28;20319;-77
2022/09/28 01:38:05;;;;;;;;;;;;;;;;;;1041269;28;19912;-77
2022/09/28 01:38:37;;;;;;;;;;;;;;;;;;1037981;28;19914;-77
2022/09/28 01:39:09;;;;;;;;;;;;;;;;;;1025229;28;19964;-77
2022/09/28 01:39:40;;;;;;;;;;;;;;;;;;1041619;28;19919;-78
2022/09/28 01:40:12;;;;;;;;;;;;;;;;;;1041993;28;20384;-79
2022/09/28 01:40:46;;;;;;;;;;;;;;;;;;1045270;28;20518;-79
2022/09/28 01:41:18;;;;;;;;;;;;;;;;;;1043637;28;19913;-79
2022/09/28 01:41:52;;;;;;;;;;;;;;;;;;1043048;28;19913;-78
2022/09/28 01:42:29;;;;;;;;;;;;;;;;;;1035234;28;19953;-78
2022/09/28 01:43:00;;;;;;;;;;;;;;;;;;1035048;28;20594;-77
2022/09/28 01:43:31;;;;;;;;;;;;;;;;;;1036821;28;19913;-78
2022/09/28 01:44:02;;;;;;;;;;;;;;;;;;1041509;28;19913;-78
2022/09/28 01:44:38;;;;;;;;;;;;;;;;;;1043567;28;19913;-78
2022/09/28 01:45:09;;;;;;;;;;;;;;;;;;1046909;28;20758;-77
2022/09/28 01:45:42;;;;;;;;;;;;;;;;;;1044600;28;19913;-77
2022/09/28 01:46:12;;;;;;;;;;;;;;;;;;1040318;28;20011;-78
2022/09/28 01:46:43;;;;;;;;;;;;;;;;;;1036034;28;19917;-78
2022/09/28 01:47:14;;;;;;;;;;;;;;;;;;1032847;28;19917;-77
2022/09/28 01:47:44;;;;;;;;;;;;;;;;;;1033923;28;19913;-77
2022/09/28 01:48:15;;;;;;;;;;;;;;;;;;1033694;28;19948;-78
2022/09/28 01:48:45;;;;;;;;;;;;;;;;;;1034646;28;20027;-78
2022/09/28 01:49:16;;;;;;;;;;;;;;;;;;1033987;28;20000;-78
2022/09/28 01:49:47;;;;;;;;;;;;;;;;;;1029954;28;20002;-78
2022/09/28 01:50:18;;;;;;;;;;;;;;;;;;1028195;28;19926;-78
2022/09/28 01:50:49;;;;;;;;;;;;;;;;;;1027113;28;19961;-80
2022/09/28 01:51:26;;;;;;;;;;;;;;;;;;1029614;28;19922;-81
2022/09/28 01:51:57;;;;;;;;;;;;;;;;;;1033188;28;19921;-80
2022/09/28 01:52:29;;;;;;;;;;;;;;;;;;1036561;28;19929;-82
2022/09/28 01:53:05;;;;;;;;;;;;;;;;;;1035416;28;19919;-80
2022/09/28 01:53:35;;;;;;;;;;;;;;;;;;1051286;22;20467;-77
2022/09/28 01:54:44;;;;;;;;;;;;;;;;;;1031411;28;19936;-79
2022/09/28 01:55:18;;;;;;;;;;;;;;;;;;1031017;28;19941;-79
2022/09/28 01:55:48;;;;;;;;;;;;;;;;;;1028222;28;19914;-78
2022/09/28 01:56:19;;;;;;;;;;;;;;;;;;1031426;28;19922;-78
2022/09/28 01:56:49;;;;;;;;;;;;;;;;;;1031200;28;19920;-80
2022/09/28 01:57:49;;;;;;;;;;;;;;;;;;1080375;22;19978;-79
2022/09/28 01:58:50;;;;;;;;;;;;;;;;;;1066758;22;19933;-79
2022/09/28 01:59:20;;;;;;;;;;;;;;;;;;1051777;22;20438;-78
2022/09/28 01:59:50;;;;;;;;;;;;;;;;;;1064385;22;19982;-79
2022/09/28 02:00:24;;;;;;;;;;;;;;;;;;1043877;28;19960;-79
2022/09/28 02:00:57;;;;;;;;;;;;;;;;;;1042649;28;19951;-80
2022/09/28 02:01:28;;;;;;;;;;;;;;;;;;1044230;28;20133;-80
2022/09/28 02:01:58;;;;;;;;;;;;;;;;;;1049397;22;19962;-80
2022/09/28 02:02:28;;;;;;;;;;;;;;;;;;1042292;28;19960;-77
2022/09/28 02:02:59;;;;;;;;;;;;;;;;;;1050527;23;19920;-78
2022/09/28 02:03:32;;;;;;;;;;;;;;;;;;1044133;28;20265;-78
2022/09/28 02:04:03;;;;;;;;;;;;;;;;;;1044025;28;19924;-77
2022/09/28 02:04:43;;;;;;;;;;;;;;;;;;;;;
2022/09/28 02:05:05;;;;;;;;;;;;;;;;;;1059473;22;19929;-80
2022/09/28 02:05:36;;;;;;;;;;;;;;;;;;1038197;28;19979;-80
2022/09/28 02:06:07;;;;;;;;;;;;;;;;;;1035043;28;19917;-79
2022/09/28 02:06:38;;;;;;;;;;;;;;;;;;1032831;28;19917;-81
2022/09/28 02:07:11;;;;;;;;;;;;;;;;;;1031664;28;19921;-81
2022/09/28 02:07:41;;;;;;;;;;;;;;;;;;1033710;28;19932;-80
2022/09/28 02:08:11;;;;;;;;;;;;;;;;;;1036591;28;19967;-81
2022/09/28 02:08:42;;;;;;;;;;;;;;;;;;1036168;28;20862;-80
2022/09/28 02:09:12;;;;;;;;;;;;;;;;;;1035408;28;20007;-80
2022/09/28 02:09:43;;;;;;;;;;;;;;;;;;1034910;28;20308;-81
2022/09/28 02:10:14;;;;;;;;;;;;;;;;;;1036661;28;19926;-79
2022/09/28 02:10:45;;;;;;;;;;;;;;;;;;1037541;28;19930;-79
2022/09/28 02:11:15;;;;;;;;;;;;;;;;;;1035731;28;20352;-80
2022/09/28 02:11:46;;;;;;;;;;;;;;;;;;1038431;28;19976;-80
2022/09/28 02:12:17;;;;;;;;;;;;;;;;;;1038892;28;19920;-79
2022/09/28 02:12:48;;;;;;;;;;;;;;;;;;1037016;28;19925;-80
2022/09/28 02:13:22;;;;;;;;;;;;;;;;;;1033413;28;20362;-81
2022/09/28 02:13:54;;;;;;;;;;;;;;;;;;1088024;23;19916;-81
2022/09/28 02:14:24;;;;;;;;;;;;;;;;;;1041115;28;19925;-79
2022/09/28 02:16:01;;;;;;;;;;;;;;;;;;1040696;28;19940;-80
2022/09/28 02:16:32;;;;;;;;;;;;;;;;;;1139601;22;19991;-79
2022/09/28 02:17:02;;;;;;;;;;;;;;;;;;1082900;22;20533;-78
2022/09/28 02:17:33;;;;;;;;;;;;;;;;;;1055835;22;19920;-80
2022/09/28 02:18:04;;;;;;;;;;;;;;;;;;1042019;28;19929;-80
2022/09/28 02:18:34;;;;;;;;;;;;;;;;;;1084124;23;19924;-80
2022/09/28 02:19:05;;;;;;;;;;;;;;;;;;1071507;22;19927;-79
2022/09/28 02:19:35;;;;;;;;;;;;;;;;;;1051788;22;20460;-80
2022/09/28 02:20:06;;;;;;;;;;;;;;;;;;1073624;22;19919;-78
2022/09/28 02:20:36;;;;;;;;;;;;;;;;;;1049599;22;19922;-78
2022/09/28 02:21:06;;;;;;;;;;;;;;;;;;1047601;28;20425;-79
2022/09/28 02:21:37;;;;;;;;;;;;;;;;;;1046035;28;19921;-78
2022/09/28 02:22:07;;;;;;;;;;;;;;;;;;1045893;28;20660;-79
2022/09/28 02:22:39;;;;;;;;;;;;;;;;;;1046342;28;20414;-78
2022/09/28 02:23:09;;;;;;;;;;;;;;;;;;1044026;28;19999;-79
2022/09/28 02:23:40;;;;;;;;;;;;;;;;;;1040542;28;19935;-79
2022/09/28 02:24:10;;;;;;;;;;;;;;;;;;1043786;28;19944;-80
2022/09/28 02:24:40;;;;;;;;;;;;;;;;;;1054881;22;19916;-78
2022/09/28 02:25:11;;;;;;;;;;;;;;;;;;1051552;22;19920;-79
2022/09/28 02:25:41;;;;;;;;;;;;;;;;;;1089720;22;19937;-79
2022/09/28 02:26:11;;;;;;;;;;;;;;;;;;1068249;22;19919;-80
2022/09/28 02:26:42;;;;;;;;;;;;;;;;;;1062449;22;20023;-81
2022/09/28 02:27:14;;;;;;;;;;;;;;;;;;1051641;28;19989;-80
2022/09/28 02:27:45;;;;;;;;;;;;;;;;;;1148378;22;20392;-80
2022/09/28 02:28:16;;;;;;;;;;;;;;;;;;1037923;28;19925;-81
2022/09/28 02:28:47;;;;;;;;;;;;;;;;;;1037091;28;19921;-81
2022/09/28 02:29:18;;;;;;;;;;;;;;;;;;1031603;28;20009;-81
2022/09/28 02:29:49;;;;;;;;;;;;;;;;;;1067123;23;19937;-80
2022/09/28 02:30:20;;;;;;;;;;;;;;;;;;1126316;23;19996;-81
2022/09/28 02:32:47;;;;;;;;;;;;;;;;;;1050252;22;20664;-81
2022/09/28 02:33:17;;;;;;;;;;;;;;;;;;1108609;23;20377;-81
2022/09/28 02:33:47;;;;;;;;;;;;;;;;;;1040581;28;19931;-80
2022/09/28 02:34:18;;;;;;;;;;;;;;;;;;1065157;22;19936;-81
2022/09/28 02:34:49;;;;;;;;;;;;;;;;;;1059161;22;20560;-83
2022/09/28 02:36:29;;;;;;;;;;;;;;;;;;1070746;22;19932;-79
2022/09/28 02:37:34;;;;;;;;;;;;;;;;;;1039719;28;19929;-80
2022/09/28 02:38:04;;;;;;;;;;;;;;;;;;1036219;28;19917;-81
2022/09/28 02:38:35;;;;;;;;;;;;;;;;;;1034163;28;19976;-81
2022/09/28 02:39:46;;;;;;;;;;;;;;;;;;1194887;23;21254;-81
2022/09/28 02:40:56;;;;;;;;;;;;;;;;;;1133795;22;19929;-79
2022/09/28 02:41:27;;;;;;;;;;;;;;;;;;1055407;23;19964;-79
2022/09/28 02:41:57;;;;;;;;;;;;;;;;;;1067031;22;20004;-79
2022/09/28 02:42:29;;;;;;;;;;;;;;;;;;1040589;28;19928;-80
2022/09/28 02:43:05;;;;;;;;;;;;;;;;;;1069667;22;19932;-80
2022/09/28 02:43:38;;;;;;;;;;;;;;;;;;1195748;22;19911;-80
2022/09/28 02:44:49;;;;;;;;;;;;;;;;;;1210499;22;19927;-79
2022/09/28 02:45:19;;;;;;;;;;;;;;;;;;1051614;22;21713;-80
2022/09/28 02:46:19;;;;;;;;;;;;;;;;;;1061218;22;20126;-80
2022/09/28 02:46:50;;;;;;;;;;;;;;;;;;1045525;28;19917;-80
2022/09/28 02:47:22;;;;;;;;;;;;;;;;;;1059952;23;19964;-80
2022/09/28 02:48:32;;;;;;;;;;;;;;;;;;1062488;22;19933;-81
2022/09/28 02:49:03;;;;;;;;;;;;;;;;;;1043437;28;19924;-80
2022/09/28 02:49:34;;;;;;;;;;;;;;;;;;1053279;23;19923;-80
2022/09/28 02:52:28;;;;;;;;;;;;;;;;;;1044432;28;19929;-80
2022/09/28 02:53:00;;;;;;;;;;;;;;;;;;1087344;22;19913;-77
2022/09/28 02:53:30;;;;;;;;;;;;;;;;;;1048655;23;19928;-78
2022/09/28 02:54:01;;;;;;;;;;;;;;;;;;1043249;28;19920;-80
2022/09/28 02:55:06;;;;;;;;;;;;;;;;;;1041648;28;19929;-78
2022/09/28 02:55:36;;;;;;;;;;;;;;;;;;1041440;28;19917;-77
2022/09/28 02:56:07;;;;;;;;;;;;;;;;;;1045768;28;20397;-78
2022/09/28 02:56:37;;;;;;;;;;;;;;;;;;1042668;28;19952;-78
2022/09/28 02:57:07;;;;;;;;;;;;;;;;;;1043779;28;19920;-79
2022/09/28 02:57:38;;;;;;;;;;;;;;;;;;1041851;28;20381;-79
2022/09/28 02:58:08;;;;;;;;;;;;;;;;;;1036403;28;19923;-78
2022/09/28 02:58:39;;;;;;;;;;;;;;;;;;1037134;28;19917;-77
2022/09/28 02:59:09;;;;;;;;;;;;;;;;;;1041036;28;19938;-76
2022/09/28 02:59:39;;;;;;;;;;;;;;;;;;1042221;28;19928;-80
2022/09/28 03:00:10;;;;;;;;;;;;;;;;;;1040143;28;20450;-76
2022/09/28 03:00:41;;;;;;;;;;;;;;;;;;1042166;28;19913;-76
2022/09/28 03:01:11;;;;;;;;;;;;;;;;;;1040214;28;20010;-78
2022/09/28 03:01:41;;;;;;;;;;;;;;;;;;1041612;28;19913;-79
2022/09/28 03:02:12;;;;;;;;;;;;;;;;;;1041996;28;19913;-81
2022/09/28 03:02:42;;;;;;;;;;;;;;;;;;1041678;28;19924;-79
2022/09/28 03:03:13;;;;;;;;;;;;;;;;;;1041769;28;20356;-78
2022/09/28 03:03:43;;;;;;;;;;;;;;;;;;1041899;28;19920;-78
2022/09/28 03:04:14;;;;;;;;;;;;;;;;;;1041518;28;20085;-79
2022/09/28 03:04:44;;;;;;;;;;;;;;;;;;1040916;28;20492;-78
2022/09/28 03:05:15;;;;;;;;;;;;;;;;;;1040801;28;20020;-78
2022/09/28 03:05:45;;;;;;;;;;;;;;;;;;1037952;28;19929;-79
2022/09/28 03:06:15;;;;;;;;;;;;;;;;;;1042579;28;19917;-79
2022/09/28 03:06:46;;;;;;;;;;;;;;;;;;1036898;28;19920;-78
2022/09/28 03:07:16;;;;;;;;;;;;;;;;;;1036486;28;19917;-79
2022/09/28 03:07:47;;;;;;;;;;;;;;;;;;1039325;28;19913;-78
2022/09/28 03:08:17;;;;;;;;;;;;;;;;;;1040412;28;19913;-78
2022/09/28 03:08:47;;;;;;;;;;;;;;;;;;1040193;28;19923;-79
2022/09/28 03:09:18;;;;;;;;;;;;;;;;;;1040299;28;19992;-77
2022/09/28 03:09:48;;;;;;;;;;;;;;;;;;1040352;28;20441;-76
2022/09/28 03:10:18;;;;;;;;;;;;;;;;;;1039666;28;19916;-76
2022/09/28 03:10:49;;;;;;;;;;;;;;;;;;1040361;28;19921;-77
2022/09/28 03:11:19;;;;;;;;;;;;;;;;;;1039253;28;19923;-78
2022/09/28 03:11:50;;;;;;;;;;;;;;;;;;1044039;28;20502;-78
2022/09/28 03:12:22;;;;;;;;;;;;;;;;;;1034622;28;19921;-79
2022/09/28 03:12:52;;;;;;;;;;;;;;;;;;1034689;28;19949;-77
2022/09/28 03:13:23;;;;;;;;;;;;;;;;;;1035406;28;20401;-80
2022/09/28 03:13:53;;;;;;;;;;;;;;;;;;1030950;28;19928;-80
2022/09/28 03:14:24;;;;;;;;;;;;;;;;;;1031234;28;19918;-77
2022/09/28 03:14:54;;;;;;;;;;;;;;;;;;1030954;28;20373;-80
2022/09/28 03:15:25;;;;;;;;;;;;;;;;;;1034345;28;20072;-80
2022/09/28 03:15:55;;;;;;;;;;;;;;;;;;1040498;28;19943;-78
2022/09/28 03:16:27;;;;;;;;;;;;;;;;;;1038226;28;20009;-78
2022/09/28 03:16:57;;;;;;;;;;;;;;;;;;1037818;28;20326;-77
2022/09/28 03:17:28;;;;;;;;;;;;;;;;;;1036737;28;19921;-79
2022/09/28 03:17:58;;;;;;;;;;;;;;;;;;1039323;28;19990;-78
2022/09/28 03:18:29;;;;;;;;;;;;;;;;;;1038545;28;19977;-78
2022/09/28 03:18:59;;;;;;;;;;;;;;;;;;1041453;28;20739;-78
2022/09/28 03:19:30;;;;;;;;;;;;;;;;;;1041066;28;19928;-78
2022/09/28 03:20:01;;;;;;;;;;;;;;;;;;1042128;28;19920;-79
2022/09/28 03:20:32;;;;;;;;;;;;;;;;;;1042823;28;20004;-80
2022/09/28 03:21:02;;;;;;;;;;;;;;;;;;1041410;28;20384;-79
2022/09/28 03:21:33;;;;;;;;;;;;;;;;;;1041453;28;19917;-78
2022/09/28 03:22:04;;;;;;;;;;;;;;;;;;1041943;28;20459;-79
2022/09/28 03:22:34;;;;;;;;;;;;;;;;;;1041106;28;19948;-79
2022/09/28 03:23:05;;;;;;;;;;;;;;;;;;1040944;28;20414;-80
2022/09/28 03:23:35;;;;;;;;;;;;;;;;;;1041444;28;19913;-79
2022/09/28 03:24:05;;;;;;;;;;;;;;;;;;1038141;28;19928;-79
2022/09/28 03:24:36;;;;;;;;;;;;;;;;;;1038050;28;20569;-79
2022/09/28 03:25:09;;;;;;;;;;;;;;;;;;1038940;28;19912;-80
2022/09/28 03:25:39;;;;;;;;;;;;;;;;;;1040064;28;19989;-81
2022/09/28 03:26:09;;;;;;;;;;;;;;;;;;1042875;28;20514;-80
2022/09/28 03:26:40;;;;;;;;;;;;;;;;;;1041381;28;19972;-80
2022/09/28 03:27:10;;;;;;;;;;;;;;;;;;1043312;28;19963;-78
2022/09/28 03:27:41;;;;;;;;;;;;;;;;;;1042771;28;19993;-80
2022/09/28 03:28:11;;;;;;;;;;;;;;;;;;1040471;28;19928;-78
2022/09/28 03:28:41;;;;;;;;;;;;;;;;;;1040794;28;19917;-78
2022/09/28 03:29:12;;;;;;;;;;;;;;;;;;1041299;28;19923;-78
2022/09/28 03:29:42;;;;;;;;;;;;;;;;;;1041766;28;20728;-78
2022/09/28 03:30:13;;;;;;;;;;;;;;;;;;1040954;28;19917;-78
2022/09/28 03:30:43;;;;;;;;;;;;;;;;;;1041854;28;19912;-79
2022/09/28 03:31:14;;;;;;;;;;;;;;;;;;1040430;28;19967;-79
2022/09/28 03:31:44;;;;;;;;;;;;;;;;;;1041452;28;19928;-80
2022/09/28 03:32:15;;;;;;;;;;;;;;;;;;1040950;28;19921;-79
2022/09/28 03:32:45;;;;;;;;;;;;;;;;;;1041395;28;20371;-81
2022/09/28 03:33:15;;;;;;;;;;;;;;;;;;1040215;28;19925;-79
2022/09/28 03:33:46;;;;;;;;;;;;;;;;;;1040270;28;20321;-79
2022/09/28 03:34:16;;;;;;;;;;;;;;;;;;1043077;28;19917;-78
2022/09/28 03:34:46;;;;;;;;;;;;;;;;;;1041077;28;20050;-78
2022/09/28 03:35:17;;;;;;;;;;;;;;;;;;1044071;28;19921;-79
2022/09/28 03:35:47;;;;;;;;;;;;;;;;;;1042783;28;19939;-79
2022/09/28 03:36:18;;;;;;;;;;;;;;;;;;1042499;28;19931;-79
2022/09/28 03:36:48;;;;;;;;;;;;;;;;;;1041925;28;19920;-79
2022/09/28 03:37:18;;;;;;;;;;;;;;;;;;1041849;28;19925;-78
2022/09/28 03:37:49;;;;;;;;;;;;;;;;;;1038526;28;20448;-79
2022/09/28 03:38:19;;;;;;;;;;;;;;;;;;1038325;28;19916;-81
2022/09/28 03:38:49;;;;;;;;;;;;;;;;;;1037413;28;20768;-80
2022/09/28 03:39:20;;;;;;;;;;;;;;;;;;1034583;28;19913;-80
2022/09/28 03:39:50;;;;;;;;;;;;;;;;;;1034221;28;20464;-78
2022/09/28 03:40:21;;;;;;;;;;;;;;;;;;1036823;28;19913;-78
2022/09/28 03:40:51;;;;;;;;;;;;;;;;;;1041065;28;21104;-78
2022/09/28 03:41:21;;;;;;;;;;;;;;;;;;1049032;22;20553;-77
2022/09/28 03:41:52;;;;;;;;;;;;;;;;;;1042764;28;19921;-79
2022/09/28 03:42:22;;;;;;;;;;;;;;;;;;1043740;28;19917;-79
2022/09/28 03:42:53;;;;;;;;;;;;;;;;;;1038572;28;19924;-77
2022/09/28 03:43:23;;;;;;;;;;;;;;;;;;1038590;28;20006;-79